Time;durP1;ratioP1;P1;durP2;ratioP2;P2;SDS_P1;SDS_P2;PMS_P1;PMS_P2;Temp;Humidity;BMP_temperature;BMP_pressure;BME280_temperature;BME280_humidity;BME280_pressure;Samples;Min_cycle;Max_cycle;Signal;HPM_P1;HPM_P2
2021/08/24 00:02:50;;;;;;;15.23;4.20;;;;;;;16.18;60.61;100371.12;1814459;79;21807;-77
2021/08/24 00:05:57;;;;;;;8.23;4.50;;;;;;;16.14;60.56;100367.08;1813299;79;21397;-77
2021/08/24 00:09:02;;;;;;;10.30;4.03;;;;;;;16.10;60.46;100368.06;1813029;79;21213;-77
2021/08/24 00:12:07;;;;;;;9.40;4.05;;;;;;;16.08;60.38;100364.11;1814288;79;21287;-77
2021/08/24 00:15:15;;;;;;;8.63;4.12;;;;;;;16.08;60.33;100366.87;1812805;79;21330;-77
2021/08/24 00:18:21;;;;;;;12.58;4.20;;;;;;;16.06;60.32;100364.86;1812864;79;22568;-77
2021/08/24 00:21:27;;;;;;;9.15;3.58;;;;;;;16.05;60.42;100365.93;1813987;79;21306;-77
2021/08/24 00:24:33;;;;;;;9.43;4.08;;;;;;;16.02;60.45;100364.12;1814486;79;21204;-77
2021/08/24 00:27:38;;;;;;;7.50;4.53;;;;;;;16.00;60.59;100367.09;1814095;79;21330;-77
2021/08/24 00:30:43;;;;;;;7.10;3.77;;;;;;;15.97;60.63;100363.37;1814356;79;21736;-77
2021/08/24 00:33:48;;;;;;;20.23;4.67;;;;;;;15.97;60.78;100366.13;1815175;79;21899;-77
2021/08/24 00:36:53;;;;;;;14.40;3.83;;;;;;;15.93;60.85;100363.47;1813297;79;21293;-77
2021/08/24 00:39:59;;;;;;;15.25;4.20;;;;;;;15.90;60.94;100363.88;1812884;79;21271;-77
2021/08/24 00:43:05;;;;;;;5.10;3.40;;;;;;;15.86;61.04;100355.72;1814986;79;21299;-77
2021/08/24 00:46:42;;;;;;;7.37;3.95;;;;;;;15.83;61.11;100360.27;1814366;79;21306;-77
2021/08/24 00:49:47;;;;;;;8.15;3.83;;;;;;;15.80;61.13;100364.81;1812842;79;21314;-77
2021/08/24 00:52:53;;;;;;;13.13;4.15;;;;;;;15.77;61.17;100362.50;1810905;79;21240;-77
2021/08/24 00:56:01;;;;;;;9.38;4.67;;;;;;;15.76;61.16;100356.63;1808568;79;21346;-77
2021/08/24 00:59:07;;;;;;;11.70;4.17;;;;;;;15.78;61.15;100351.78;1807777;79;21291;-76
2021/08/24 01:02:15;;;;;;;10.50;4.67;;;;;;;15.79;61.04;100356.23;1784449;79;21165;-77
2021/08/24 01:05:22;;;;;;;10.40;4.20;;;;;;;15.80;60.91;100357.38;1809062;79;21991;-77
2021/08/24 01:08:47;;;;;;;6.45;3.83;;;;;;;15.80;60.89;100357.38;1806817;79;21311;-77
2021/08/24 01:12:16;;;;;;;7.53;3.70;;;;;;;15.79;60.79;100353.47;1808374;79;21185;-77
2021/08/24 01:15:43;;;;;;;7.90;3.80;;;;;;;15.78;60.78;100354.53;1808405;79;21192;-77
2021/08/24 01:19:07;;;;;;;9.00;4.35;;;;;;;15.76;60.82;100351.12;1807880;79;21815;-77
2021/08/24 01:22:39;;;;;;;9.85;4.53;;;;;;;15.75;60.87;100353.03;1807410;79;21212;-77
2021/08/24 01:25:54;;;;;;;9.10;4.25;;;;;;;15.72;61.01;100347.95;1806870;79;21153;-77
2021/08/24 01:29:27;;;;;;;14.47;4.25;;;;;;;15.70;61.09;100353.34;1807852;79;21327;-77
2021/08/24 01:32:44;;;;;;;9.88;4.35;;;;;;;15.66;61.20;100342.41;1808361;79;21181;-77
2021/08/24 01:36:23;;;;;;;8.60;4.80;;;;;;;15.65;61.32;100348.98;1803832;79;21189;-77
2021/08/24 01:39:36;;;;;;;11.53;4.30;;;;;;;15.63;61.46;100352.46;1807731;79;21295;-77
2021/08/24 01:42:42;;;;;;;7.83;3.95;;;;;;;15.60;61.56;100349.05;1809019;79;21291;-77
2021/08/24 01:45:55;;;;;;;8.23;4.08;;;;;;;15.56;61.63;100349.14;1809588;79;21208;-77
2021/08/24 01:49:01;;;;;;;7.42;3.55;;;;;;;15.54;61.70;100351.80;1808137;79;21348;-77
2021/08/24 01:52:09;;;;;;;8.20;4.30;;;;;;;15.52;61.75;100356.12;1807365;79;21200;-78
2021/08/24 01:55:21;;;;;;;10.10;4.62;;;;;;;15.50;61.80;100351.35;1807323;79;21875;-77
2021/08/24 01:58:37;;;;;;;;;;;;;;;15.47;61.95;100357.27;1811192;79;21299;-77
2021/08/24 02:01:45;;;;;;;9.63;4.62;;;;;;;15.44;62.01;100364.59;1807199;78;20232;-77
2021/08/24 02:05:15;;;;;;;8.08;4.60;;;;;;;15.40;61.97;100360.55;1806953;79;21303;-77
2021/08/24 02:08:23;;;;;;;13.43;5.00;;;;;;;15.38;61.96;100359.89;1807161;79;21386;-77
2021/08/24 02:11:28;;;;;;;13.58;5.05;;;;;;;15.36;61.95;100359.26;1809081;79;21334;-77
2021/08/24 02:14:34;;;;;;;9.05;4.92;;;;;;;15.35;62.03;100357.56;1808366;79;21173;-77
2021/08/24 02:17:38;;;;;;;6.92;4.28;;;;;;;15.34;62.15;100358.09;1808247;79;21362;-77
2021/08/24 02:20:47;;;;;;;8.93;4.55;;;;;;;15.34;62.21;100355.87;1807054;79;21236;-77
2021/08/24 02:23:55;;;;;;;11.20;5.17;;;;;;;15.34;62.27;100353.12;1806782;79;21318;-77
2021/08/24 02:27:01;;;;;;;9.43;5.08;;;;;;;15.33;62.30;100352.77;1808525;79;21811;-77
2021/08/24 02:30:05;;;;;;;10.68;5.08;;;;;;;15.33;62.28;100351.39;1806739;79;21216;-77
2021/08/24 02:33:11;;;;;;;9.38;5.00;;;;;;;15.33;62.25;100359.13;1808223;79;21149;-77
2021/08/24 02:36:17;;;;;;;13.25;5.03;;;;;;;15.33;62.22;100356.91;1783306;79;21177;-77
2021/08/24 02:39:28;;;;;;;11.03;5.28;;;;;;;15.34;62.25;100351.73;1807022;79;21224;-77
2021/08/24 02:42:35;;;;;;;;;;;;;;;15.33;62.38;100352.77;1811739;79;21339;-77
2021/08/24 02:45:46;;;;;;;12.45;5.45;;;;;;;15.34;62.43;100359.48;1808578;79;20296;-77
2021/08/24 02:48:55;;;;;;;9.63;5.30;;;;;;;15.37;62.43;100360.11;1808520;79;21863;-77
2021/08/24 02:52:00;;;;;;;16.52;5.80;;;;;;;15.38;62.46;100357.12;1808987;79;21240;-77
2021/08/24 02:55:07;;;;;;;7.67;4.60;;;;;;;15.42;62.32;100355.67;1806731;79;21695;-77
2021/08/24 02:58:11;;;;;;;11.20;5.10;;;;;;;15.45;62.28;100356.64;1784693;79;21775;-77
2021/08/24 03:01:17;;;;;;;9.18;5.15;;;;;;;15.49;61.99;100357.94;1807091;79;21326;-77
2021/08/24 03:04:23;;;;;;;8.70;4.65;;;;;;;15.53;61.91;100352.33;1808591;79;21185;-77
2021/08/24 03:07:31;;;;;;;10.00;5.00;;;;;;;15.58;61.80;100353.09;1806989;79;21169;-78
2021/08/24 03:10:38;;;;;;;9.35;4.42;;;;;;;15.63;61.64;100353.31;1809389;79;21180;-77
2021/08/24 03:13:58;;;;;;;12.40;5.15;;;;;;;15.69;61.44;100357.16;1808359;79;21173;-77
2021/08/24 03:17:10;;;;;;;9.73;4.95;;;;;;;15.75;61.23;100357.16;1808210;79;21326;-77
2021/08/24 03:20:17;;;;;;;8.15;4.50;;;;;;;15.84;61.04;100357.83;1807069;79;21287;-77
2021/08/24 03:23:23;;;;;;;7.28;4.83;;;;;;;15.92;60.86;100361.77;1807979;79;21323;-78
2021/08/24 03:26:32;;;;;;;8.30;4.83;;;;;;;16.00;60.68;100362.95;1808391;79;21304;-77
2021/08/24 03:29:38;;;;;;;9.55;5.12;;;;;;;16.10;60.52;100360.62;1808829;79;21783;-77
2021/08/24 03:32:43;;;;;;;7.20;3.92;;;;;;;16.23;60.34;100365.81;1808426;79;21291;-77
2021/08/24 03:35:48;;;;;;;8.78;4.72;;;;;;;16.33;60.15;100375.92;1808429;79;21295;-77
2021/08/24 03:38:54;;;;;;;10.80;4.17;;;;;;;16.43;59.97;100371.36;1808793;79;21867;-77
2021/08/24 03:41:58;;;;;;;6.58;4.00;;;;;;;16.53;59.61;100369.85;1807310;79;21295;-77
2021/08/24 03:45:05;;;;;;;8.00;3.98;;;;;;;16.66;59.44;100370.91;1808283;79;21173;-77
2021/08/24 03:48:11;;;;;;;9.20;4.40;;;;;;;16.78;59.04;100369.20;1783279;79;21184;-77
2021/08/24 03:51:17;;;;;;;9.18;4.33;;;;;;;16.91;58.85;100371.95;1807926;79;21794;-77
2021/08/24 03:54:23;;;;;;;10.18;4.78;;;;;;;17.05;58.50;100374.98;1807661;79;21922;-77
2021/08/24 03:57:30;;;;;;;7.22;4.22;;;;;;;17.21;58.37;100365.89;1809126;79;21187;-77
2021/08/24 04:00:35;;;;;;;9.23;4.42;;;;;;;17.35;57.91;100365.62;1811063;79;21735;-77
2021/08/24 04:03:41;;;;;;;9.75;4.47;;;;;;;17.50;57.52;100370.89;1811664;79;21572;-77
2021/08/24 04:06:47;;;;;;;7.67;3.98;;;;;;;17.62;56.96;100364.96;1811628;79;21721;-77
2021/08/24 04:09:53;;;;;;;14.53;4.53;;;;;;;17.74;56.50;100358.23;1811238;79;21974;-78
2021/08/24 04:12:59;;;;;;;7.60;3.70;;;;;;;17.87;56.55;100364.20;1810210;79;21735;-78
2021/08/24 04:16:07;;;;;;;6.62;4.05;;;;;;;18.00;56.03;100358.58;1811514;79;21295;-78
2021/08/24 04:19:15;;;;;;;7.40;4.00;;;;;;;18.12;55.80;100360.95;1811619;79;21310;-78
2021/08/24 04:22:25;;;;;;;6.62;3.92;;;;;;;18.27;55.31;100361.16;1810465;79;21192;-78
2021/08/24 04:25:30;;;;;;;7.30;3.40;;;;;;;18.42;54.07;100361.66;1812448;79;21291;-78
2021/08/24 04:28:36;;;;;;;5.10;3.22;;;;;;;18.59;53.76;100358.64;1812417;79;21313;-78
2021/08/24 04:31:46;;;;;;;6.78;3.15;;;;;;;18.76;53.22;100369.99;1811796;79;21335;-78
2021/08/24 04:34:50;;;;;;;6.87;3.47;;;;;;;18.91;52.81;100366.85;1789794;79;21287;-78
2021/08/24 06:21:53;;;;;;;4.50;2.70;;;;;;;22.66;40.19;100382.22;1803362;79;21092;-77
2021/08/24 06:24:59;;;;;;;9.73;2.70;;;;;;;22.73;40.16;100388.19;1814536;79;21220;-77
2021/08/24 06:28:04;;;;;;;5.45;2.47;;;;;;;22.74;40.42;100384.30;1812672;79;21347;-77
2021/08/24 06:31:14;;;;;;;3.65;2.35;;;;;;;22.81;41.08;100386.34;1814727;79;21263;-77
2021/08/24 06:34:19;;;;;;;4.08;2.10;;;;;;;22.94;41.06;100384.08;1814967;79;21304;-77
2021/08/24 06:37:24;;;;;;;5.50;2.08;;;;;;;23.08;40.76;100385.95;1812860;79;21291;-78
2021/08/24 06:40:29;;;;;;;8.30;2.50;;;;;;;23.18;40.51;100387.49;1814806;79;21829;-77
2021/08/24 06:43:35;;;;;;;5.70;2.15;;;;;;;23.25;39.29;100396.25;1814480;79;21173;-78
2021/08/24 06:46:41;;;;;;;7.30;2.77;;;;;;;23.27;40.13;100381.47;1786973;79;21260;-77
2021/08/24 06:49:47;;;;;;;7.70;2.17;;;;;;;23.36;40.43;100386.90;1811247;79;21291;-77
2021/08/24 06:52:51;;;;;;;4.58;2.65;;;;;;;23.48;40.19;100380.65;1809983;79;21327;-78
2021/08/24 06:55:57;;;;;;;5.25;2.55;;;;;;;23.58;39.29;100381.33;1809953;79;22585;-77
2021/08/24 06:59:03;;;;;;;6.80;2.05;;;;;;;23.64;40.17;100374.72;1789885;79;21331;-78
2021/08/24 07:02:08;;;;;;;11.35;1.85;;;;;;;23.73;39.63;100370.92;1789141;79;21654;-77
2021/08/24 07:05:15;;;;;;;5.72;2.42;;;;;;;23.81;39.16;100368.51;1795799;79;21276;-77
2021/08/24 07:08:21;;;;;;;5.67;1.98;;;;;;;23.88;39.33;100375.27;1791638;79;21220;-77
2021/08/24 07:11:28;;;;;;;3.05;1.77;;;;;;;23.95;38.59;100378.72;1787597;79;21172;-77
2021/08/24 07:14:33;;;;;;;5.78;2.10;;;;;;;24.03;38.31;100378.77;1791680;79;21315;-78
2021/08/24 07:17:40;;;;;;;4.15;1.90;;;;;;;24.04;38.56;100379.90;1787024;79;21280;-78
2021/08/24 07:20:45;;;;;;;4.65;2.08;;;;;;;24.07;38.13;100386.92;1788341;79;21272;-78
2021/08/24 07:23:53;;;;;;;4.22;1.85;;;;;;;24.12;38.83;100393.95;1792278;79;21196;-77
2021/08/24 07:26:58;;;;;;;5.15;1.92;;;;;;;24.22;38.88;100381.48;1783824;79;21280;-78
2021/08/24 07:30:03;;;;;;;6.80;2.20;;;;;;;24.36;38.50;100376.30;1776123;79;21205;-77
2021/08/24 07:33:09;;;;;;;3.45;1.90;;;;;;;24.48;38.48;100384.84;1779947;79;21341;-77
2021/08/24 07:36:14;;;;;;;4.70;1.98;;;;;;;24.51;38.34;100386.24;1780890;79;21784;-78
2021/08/24 07:39:20;;;;;;;3.35;1.85;;;;;;;24.52;37.95;100388.52;1776300;79;22346;-77
2021/08/24 07:42:26;;;;;;;3.25;2.22;;;;;;;24.50;37.96;100383.16;1784402;79;21771;-78
2021/08/24 07:45:31;;;;;;;4.97;2.35;;;;;;;24.47;38.68;100382.32;1778628;79;21732;-78
2021/08/24 07:48:36;;;;;;;6.85;2.17;;;;;;;24.49;39.06;100381.48;1772257;79;21824;-77
2021/08/24 07:51:42;;;;;;;7.15;2.22;;;;;;;24.59;39.80;100385.76;1769760;81;21295;-77
2021/08/24 07:54:47;;;;;;;5.30;2.15;;;;;;;24.76;38.80;100387.02;1770947;81;21296;-78
2021/08/24 07:57:53;;;;;;;6.35;2.45;;;;;;;24.79;37.76;100385.63;1769889;81;21205;-78
2021/08/24 08:00:58;;;;;;;5.25;2.10;;;;;;;24.84;38.43;100380.94;1770232;81;21321;-78
2021/08/24 08:04:04;;;;;;;3.85;2.20;;;;;;;24.96;37.52;100379.32;1780866;79;21815;-77
2021/08/24 08:07:11;;;;;;;3.42;1.82;;;;;;;25.01;37.45;100382.70;1776131;79;21301;-78
2021/08/24 08:10:16;;;;;;;2.37;1.80;;;;;;;25.06;37.09;100374.34;1783629;79;21859;-77
2021/08/24 08:13:21;;;;;;;3.55;1.80;;;;;;;25.11;36.07;100372.44;1780133;79;21807;-77
2021/08/24 08:16:27;;;;;;;8.63;1.98;;;;;;;25.14;36.09;100369.67;1783299;79;21713;-78
2021/08/24 08:19:33;;;;;;;3.50;1.77;;;;;;;25.18;36.86;100373.62;1784516;79;21815;-77
2021/08/24 08:22:38;;;;;;;6.00;1.95;;;;;;;25.27;37.19;100379.55;1770829;79;21284;-78
2021/08/24 08:25:44;;;;;;;5.30;1.47;;;;;;;25.35;36.52;100384.04;1780894;79;21280;-78
2021/08/24 08:28:51;;;;;;;2.70;1.67;;;;;;;25.44;36.49;100370.38;1779405;79;21369;-78
2021/08/24 08:32:00;;;;;;;3.75;1.80;;;;;;;25.49;36.12;100368.98;1779745;79;21322;-77
2021/08/24 08:35:04;;;;;;;4.42;1.95;;;;;;;25.50;36.91;100372.06;1778957;79;21154;-78
2021/08/24 08:38:09;;;;;;;3.80;1.72;;;;;;;25.57;35.95;100369.03;1778142;79;21177;-77
2021/08/24 08:41:53;;;;;;;3.42;2.10;;;;;;;25.60;36.08;100376.89;1777357;79;21252;-78
2021/08/24 08:45:19;;;;;;;3.87;1.65;;;;;;;25.61;35.78;100372.41;1784171;79;21278;-77
2021/08/24 08:48:48;;;;;;;4.65;2.02;;;;;;;25.63;36.06;100375.77;1778638;79;21169;-78
2021/08/24 08:52:21;;;;;;;5.37;2.35;;;;;;;25.60;35.73;100356.73;1774751;79;21312;-77
2021/08/24 08:55:54;;;;;;;6.28;2.10;;;;;;;25.54;36.86;100362.00;1778584;79;21328;-77
2021/08/24 08:59:20;;;;;;;3.62;2.22;;;;;;;25.66;36.06;100365.42;1688436;84;21402;-78
2021/08/24 09:02:56;;;;;;;4.55;2.22;;;;;;;25.71;36.59;100364.03;1783125;79;21848;-77
2021/08/24 09:06:03;;;;;;;4.78;1.98;;;;;;;25.78;36.50;100362.95;1788435;79;21177;-77
2021/08/24 09:09:09;;;;;;;4.62;1.98;;;;;;;25.77;36.85;100364.08;1783303;79;21169;-78
2021/08/24 09:12:14;;;;;;;4.70;2.30;;;;;;;25.77;37.32;100365.48;1751559;81;21347;-78
2021/08/24 09:15:24;;;;;;;4.85;1.82;;;;;;;25.82;37.14;100364.93;1782359;79;21839;-78
2021/08/24 09:18:43;;;;;;;2.75;2.00;;;;;;;25.85;36.97;100353.74;1741360;81;21156;-77
2021/08/24 09:21:51;;;;;;;6.28;2.22;;;;;;;25.86;36.54;100355.42;1778319;79;21169;-78
2021/08/24 09:24:58;;;;;;;9.28;2.12;;;;;;;25.86;36.92;100345.05;1791729;80;21201;-77
2021/08/24 09:28:21;;;;;;;4.75;2.47;;;;;;;25.85;37.37;100342.54;1801606;79;21823;-78
2021/08/24 09:31:28;;;;;;;7.80;2.65;;;;;;;25.90;37.02;100351.80;1800867;79;21771;-78
2021/08/24 09:34:35;;;;;;;6.42;2.33;;;;;;;25.95;37.23;100349.56;1800603;79;21213;-78
2021/08/24 09:37:44;;;;;;;7.50;2.90;;;;;;;25.99;37.65;100339.48;1802245;79;21717;-78
2021/08/24 09:40:53;;;;;;;4.15;2.10;;;;;;;26.07;38.08;100340.34;1801485;79;21287;-77
2021/08/24 09:44:03;;;;;;;6.13;2.67;;;;;;;26.10;38.26;100333.33;1801558;79;21343;-78
2021/08/24 09:47:24;;;;;;;;;;;;;;;26.14;38.92;100335.29;1804023;79;21847;-78
2021/08/24 09:50:31;;;;;;;5.85;2.37;;;;;;;26.19;39.07;100332.48;1800248;79;20291;-78
2021/08/24 09:53:42;;;;;;;5.00;2.65;;;;;;;26.16;38.63;100335.00;1800941;79;21307;-78
2021/08/24 09:56:50;;;;;;;8.85;3.05;;;;;;;26.18;38.83;100327.17;1800773;79;21771;-78
2021/08/24 10:00:11;;;;;;;9.08;3.72;;;;;;;26.23;38.66;100324.37;1801145;79;22458;-78
2021/08/24 10:03:43;;;;;;;4.85;2.37;;;;;;;26.22;38.77;100324.09;1801199;79;21868;-77
2021/08/24 10:07:02;;;;;;;8.95;3.00;;;;;;;26.24;39.24;100321.27;1800577;79;21196;-78
2021/08/24 10:10:10;;;;;;;7.10;2.80;;;;;;;26.33;39.04;100329.13;1801511;79;21284;-78
2021/08/24 10:13:46;;;;;;;4.12;2.72;;;;;;;26.34;39.56;100320.43;1801260;79;21648;-77
2021/08/24 10:16:52;;;;;;;6.20;2.85;;;;;;;26.38;39.86;100317.91;1801107;79;21823;-78
2021/08/24 10:19:58;;;;;;;4.75;2.92;;;;;;;26.45;40.03;100322.72;1801208;79;21244;-77
2021/08/24 10:23:04;;;;;;;4.53;2.87;;;;;;;26.54;40.13;100328.05;1801189;79;21335;-77
2021/08/24 10:26:22;;;;;;;9.05;2.87;;;;;;;26.56;39.58;100310.93;1799873;79;21827;-77
2021/08/24 10:29:34;;;;;;;3.83;2.90;;;;;;;26.60;39.90;100315.70;1810986;79;21342;-77
2021/08/24 10:32:44;;;;;;;3.95;2.90;;;;;;;26.61;39.62;100310.92;1793732;79;21263;-78
2021/08/24 10:35:50;;;;;;;8.75;3.45;;;;;;;26.64;39.42;100309.80;1811768;79;21338;-77
2021/08/24 10:39:16;;;;;;;8.33;3.27;;;;;;;26.65;39.32;100303.06;1812060;79;21299;-78
2021/08/24 10:42:35;;;;;;;7.28;3.10;;;;;;;26.67;39.68;100306.97;1812722;79;21543;-77
2021/08/24 10:45:42;;;;;;;;;;;;;;;26.67;39.87;100296.59;1813633;79;21393;-78
2021/08/24 10:48:47;;;;;;;7.08;3.05;;;;;;;26.71;39.97;100301.08;1812371;79;20288;-78
2021/08/24 10:52:10;;;;;;;5.45;3.05;;;;;;;26.76;40.01;100294.05;1812029;79;21287;-77
2021/08/24 10:55:31;;;;;;;4.87;3.42;;;;;;;26.84;39.47;100289.84;1810772;79;21327;-78
2021/08/24 10:58:41;;;;;;;4.70;3.15;;;;;;;26.91;38.84;100283.34;1812125;79;21303;-78
2021/08/24 11:02:08;;;;;;;7.50;3.92;;;;;;;27.01;38.91;100283.34;1811179;79;21216;-77
2021/08/24 11:05:28;;;;;;;6.55;4.25;;;;;;;27.08;39.69;100281.61;1812138;79;21640;-78
2021/08/24 11:08:57;;;;;;;11.50;5.05;;;;;;;27.10;38.44;100277.44;1812349;79;21302;-77
2021/08/24 11:12:45;;;;;;;9.70;4.42;;;;;;;27.09;39.33;100277.14;1812621;79;22095;-78
2021/08/24 11:16:01;;;;;;;8.83;4.72;;;;;;;27.16;39.30;100272.64;1812037;79;21211;-78
2021/08/24 11:19:16;;;;;;;11.93;4.35;;;;;;;27.29;38.96;100265.54;1812159;79;21291;-78
2021/08/24 11:22:44;;;;;;;9.43;4.40;;;;;;;27.35;38.42;100268.63;1812237;79;21181;-77
2021/08/24 11:26:02;;;;;;;6.92;4.12;;;;;;;27.40;38.12;100265.78;1810366;79;21720;-78
2021/08/24 11:29:13;;;;;;;7.65;4.60;;;;;;;27.51;38.71;100265.42;1798847;79;21359;-77
2021/08/24 11:32:42;;;;;;;5.90;3.65;;;;;;;27.70;39.02;100260.53;1798167;80;21791;-78
2021/08/24 11:36:19;;;;;;;8.73;4.42;;;;;;;27.90;38.90;100259.57;1798827;80;21875;-78
2021/08/24 11:40:11;;;;;;;8.40;4.62;;;;;;;28.10;38.65;100264.22;1797983;80;21292;-78
2021/08/24 11:43:23;;;;;;;8.80;4.92;;;;;;;28.29;38.07;100262.35;1797849;80;21823;-78
2021/08/24 11:46:33;;;;;;;11.80;4.40;;;;;;;28.35;37.82;100254.16;1797032;80;21323;-78
2021/08/24 11:49:54;;;;;;;12.35;4.45;;;;;;;28.22;37.94;100260.44;1797960;80;21339;-78
2021/08/24 11:53:12;;;;;;;9.48;4.33;;;;;;;28.12;37.55;100259.95;1799075;80;21264;-78
2021/08/24 11:56:22;;;;;;;9.93;5.33;;;;;;;28.12;37.37;100253.50;1797680;80;21316;-77
2021/08/24 11:59:39;;;;;;;14.03;4.45;;;;;;;28.09;37.25;100243.70;1798591;80;21907;-78
2021/08/24 12:02:48;;;;;;;8.18;4.50;;;;;;;28.09;37.48;100239.48;1798423;80;21221;-77
2021/08/24 12:06:07;;;;;;;9.63;4.53;;;;;;;28.16;37.13;100240.53;1798464;80;21300;-78
2021/08/24 12:09:13;;;;;;;8.87;4.60;;;;;;;28.21;37.47;100228.67;1796067;79;21275;-78
2021/08/24 12:12:42;;;;;;;8.48;4.55;;;;;;;28.25;37.63;100234.55;1795031;79;21215;-78
2021/08/24 12:15:54;;;;;;;7.00;4.75;;;;;;;28.25;37.12;100232.57;1790636;79;21167;-78
2021/08/24 12:19:14;;;;;;;8.85;5.12;;;;;;;28.27;36.73;100234.51;1739191;82;21887;-78
2021/08/24 12:22:38;;;;;;;6.20;3.77;;;;;;;28.22;36.15;100225.28;1736506;82;21264;-77
2021/08/24 12:25:53;;;;;;;8.33;3.55;;;;;;;28.16;36.46;100219.45;1738356;82;22199;-78
2021/08/24 12:28:57;;;;;;;6.50;3.92;;;;;;;28.09;37.04;100211.37;1742165;82;21300;-78
2021/08/24 12:32:03;;;;;;;6.50;4.67;;;;;;;27.96;37.04;100217.66;1728473;82;21315;-78
2021/08/24 12:35:24;;;;;;;8.25;4.80;;;;;;;27.68;36.73;100210.26;1727659;82;21876;-78
2021/08/24 12:38:57;;;;;;;6.92;4.62;;;;;;;27.68;36.73;100210.26;1730730;82;21284;-78
2021/08/24 12:42:35;;;;;;;8.73;4.50;;;;;;;27.57;36.94;100207.27;1780610;79;21272;-77
2021/08/24 12:45:40;;;;;;;16.00;4.50;;;;;;;27.53;37.72;100201.95;1786828;79;21874;-77
2021/08/24 12:48:45;;;;;;;10.63;4.37;;;;;;;27.53;37.75;100196.90;1783034;79;21212;-78
2021/08/24 12:52:07;;;;;;;7.12;4.87;;;;;;;27.50;37.57;100198.31;1782715;79;21842;-77
2021/08/24 12:55:17;;;;;;;8.90;4.83;;;;;;;27.45;37.72;100189.92;1778066;79;21839;-77
2021/08/24 12:58:35;;;;;;;8.58;4.17;;;;;;;27.40;37.97;100193.59;1782008;79;21300;-77
2021/08/24 13:01:41;;;;;;;10.10;4.97;;;;;;;27.42;38.00;100188.52;1783153;79;21280;-78
2021/08/24 13:04:55;;;;;;;8.05;4.92;;;;;;;27.43;37.85;100187.95;1784617;79;21260;-78
2021/08/24 13:08:35;;;;;;;10.55;5.05;;;;;;;27.42;37.95;100177.28;1782611;79;21804;-77
2021/08/24 13:11:42;;;;;;;;;;;;;;;27.44;38.44;100184.03;1783449;79;21240;-77
2021/08/24 13:15:01;;;;;;;10.63;4.72;;;;;;;27.47;38.66;100183.43;1786674;79;20288;-77
2021/08/24 13:18:29;;;;;;;7.85;4.92;;;;;;;27.49;38.33;100183.42;1788281;79;21291;-77
2021/08/24 13:21:48;;;;;;;10.45;5.00;;;;;;;27.50;38.27;100182.86;1747897;81;21280;-77
2021/08/24 13:24:54;;;;;;;10.95;4.53;;;;;;;27.46;38.32;100181.77;1781832;79;21831;-77
2021/08/24 13:28:01;;;;;;;8.33;4.62;;;;;;;27.41;38.18;100184.61;1785378;79;21953;-77
2021/08/24 13:31:48;;;;;;;12.73;4.92;;;;;;;27.37;38.31;100184.34;1785500;79;21363;-77
2021/08/24 13:34:59;;;;;;;11.85;5.03;;;;;;;27.34;38.73;100177.92;1781529;79;21295;-78
2021/08/24 13:38:27;;;;;;;8.10;5.10;;;;;;;27.33;38.59;100176.78;1788213;79;21177;-78
2021/08/24 13:41:45;;;;;;;10.13;5.03;;;;;;;27.32;38.31;100164.72;1785901;79;21312;-78
2021/08/24 13:44:50;;;;;;;7.97;4.85;;;;;;;27.35;38.77;100168.36;1778489;79;21180;-78
2021/08/24 13:47:58;;;;;;;11.48;4.58;;;;;;;27.35;38.53;100160.51;1780507;79;21180;-77
2021/08/24 13:51:08;;;;;;;11.48;4.47;;;;;;;27.34;38.75;100162.48;1782542;79;21236;-78
2021/08/24 13:54:14;;;;;;;12.28;4.47;;;;;;;27.34;38.75;100157.43;1786182;79;21280;-78
2021/08/24 13:57:20;;;;;;;6.80;4.70;;;;;;;27.33;38.83;100157.13;1782290;79;21279;-78
2021/08/24 14:00:27;;;;;;;8.40;5.17;;;;;;;27.33;39.19;100162.75;1793397;79;21295;-77
2021/08/24 14:03:36;;;;;;;9.18;4.42;;;;;;;27.31;38.90;100151.82;1790582;79;21275;-77
2021/08/24 14:06:49;;;;;;;13.53;5.45;;;;;;;27.29;39.08;100152.69;1782938;79;21192;-77
2021/08/24 14:10:02;;;;;;;10.43;4.30;;;;;;;27.26;39.24;100154.09;1788082;79;21326;-77
2021/08/24 14:13:18;;;;;;;9.60;4.62;;;;;;;27.24;39.48;100153.56;1783211;79;21814;-77
2021/08/24 14:16:36;;;;;;;8.13;4.97;;;;;;;27.19;39.48;100159.17;1780455;79;21649;-77
2021/08/24 14:19:40;;;;;;;14.28;4.90;;;;;;;27.17;39.68;100157.23;1777947;79;21276;-77
2021/08/24 14:22:45;;;;;;;11.05;4.75;;;;;;;27.15;39.54;100160.08;1786404;79;21681;-77
2021/08/24 14:25:53;;;;;;;11.57;5.30;;;;;;;27.15;39.52;100155.87;1784319;79;21272;-77
2021/08/24 14:29:02;;;;;;;9.48;5.12;;;;;;;27.14;39.57;100156.41;1778920;79;21882;-77
2021/08/24 14:32:08;;;;;;;9.75;4.87;;;;;;;27.13;39.39;100149.12;1782751;79;21910;-77
2021/08/24 14:35:15;;;;;;;10.55;5.30;;;;;;;27.12;39.68;100155.87;1783902;79;21161;-77
2021/08/24 14:38:45;;;;;;;8.88;4.85;;;;;;;27.09;39.39;100147.18;1790810;79;21271;-77
2021/08/24 14:42:01;;;;;;;12.63;5.50;;;;;;;27.04;39.83;100149.98;1778937;79;21818;-77
2021/08/24 14:45:06;;;;;;;9.43;5.37;;;;;;;26.98;39.69;100147.78;1786933;79;21236;-77
2021/08/24 14:48:17;;;;;;;14.47;5.90;;;;;;;26.93;39.48;100144.44;1787022;79;21248;-77
2021/08/24 14:51:22;;;;;;;11.95;5.33;;;;;;;26.87;39.84;100137.75;1779588;79;21287;-77
2021/08/24 14:54:38;;;;;;;8.90;4.85;;;;;;;26.80;39.76;100131.03;1791226;79;21910;-77
2021/08/24 14:57:57;;;;;;;9.25;5.03;;;;;;;26.75;40.08;100133.30;1782160;79;21161;-77
2021/08/24 15:01:24;;;;;;;8.65;4.87;;;;;;;26.71;40.25;100126.58;1785090;79;21255;-77
2021/08/24 15:04:30;;;;;;;12.15;5.72;;;;;;;26.69;40.29;100128.02;1783395;79;21331;-77
2021/08/24 15:07:35;;;;;;;17.07;5.62;;;;;;;26.63;40.28;100132.81;1771244;81;21842;-77
2021/08/24 15:10:43;;;;;;;8.38;5.17;;;;;;;26.61;40.39;100127.20;1768462;81;21204;-77
2021/08/24 15:14:08;;;;;;;9.13;5.12;;;;;;;26.56;40.58;100130.86;1771473;81;21286;-77
2021/08/24 15:17:19;;;;;;;10.55;5.40;;;;;;;26.53;40.78;100131.99;1771546;81;21318;-77
2021/08/24 15:20:29;;;;;;;8.48;5.00;;;;;;;26.47;40.90;100128.37;1771316;81;21295;-77
2021/08/24 15:23:37;;;;;;;7.45;5.10;;;;;;;26.40;40.96;100128.66;1771082;81;21323;-77
2021/08/24 15:26:43;;;;;;;7.60;4.80;;;;;;;26.36;40.93;100136.52;1778333;79;21291;-77
2021/08/24 15:29:50;;;;;;;9.40;5.20;;;;;;;26.28;41.04;100126.72;1783764;79;21824;-77
2021/08/24 15:33:06;;;;;;;8.93;5.05;;;;;;;26.22;41.46;100128.70;1800674;79;21687;-77
2021/08/24 15:36:11;;;;;;;11.90;5.30;;;;;;;26.19;41.25;100134.87;1802733;79;21291;-77
2021/08/24 15:39:16;;;;;;;8.10;4.95;;;;;;;26.13;41.52;100131.81;1801711;79;21792;-77
2021/08/24 15:42:28;;;;;;;15.45;5.28;;;;;;;26.07;41.84;100131.55;1801130;79;21215;-77
2021/08/24 15:45:36;;;;;;;11.10;5.45;;;;;;;26.03;42.16;100142.20;1800458;79;21363;-76
2021/08/24 15:48:42;;;;;;;12.20;5.00;;;;;;;25.97;42.42;100135.22;1803235;79;21279;-77
2021/08/24 15:51:48;;;;;;;9.95;5.67;;;;;;;25.90;42.77;100138.02;1801397;79;21303;-77
2021/08/24 15:54:54;;;;;;;10.88;5.58;;;;;;;25.84;43.16;100141.95;1801414;79;21304;-77
2021/08/24 15:58:00;;;;;;;9.80;4.65;;;;;;;25.77;43.39;100135.78;1801309;79;21300;-77
2021/08/24 16:01:06;;;;;;;8.88;5.40;;;;;;;25.68;43.86;100137.70;1801358;79;21359;-77
2021/08/24 16:04:15;;;;;;;10.05;4.65;;;;;;;25.56;44.40;100141.36;1802148;79;21385;-77
2021/08/24 16:07:33;;;;;;;9.70;4.62;;;;;;;25.47;44.74;100143.03;1802983;79;21181;-77
2021/08/24 16:10:44;;;;;;;7.53;4.53;;;;;;;25.36;45.02;100143.59;1803347;79;21819;-77
2021/08/24 16:13:49;;;;;;;8.43;4.30;;;;;;;25.24;45.64;100146.64;1787684;79;21149;-77
2021/08/24 16:16:59;;;;;;;7.58;3.62;;;;;;;25.12;46.15;100148.00;1802867;79;21300;-76
2021/08/24 16:20:04;;;;;;;7.25;4.28;;;;;;;25.01;46.65;100150.48;1802004;79;21315;-77
2021/08/24 16:23:10;;;;;;;7.92;3.95;;;;;;;24.86;46.96;100144.28;1802919;79;21292;-77
2021/08/24 16:26:15;;;;;;;8.40;3.87;;;;;;;24.73;47.29;100149.27;1803193;79;21347;-77
2021/08/24 16:29:21;;;;;;;9.45;4.83;;;;;;;24.59;47.52;100148.64;1802721;79;21299;-77
2021/08/24 16:32:28;;;;;;;8.15;4.53;;;;;;;24.47;47.79;100150.28;1802236;79;21190;-77
2021/08/24 16:35:53;;;;;;;10.23;5.17;;;;;;;24.36;48.05;100149.37;1812919;78;21319;-77